createdAt,value
2017-12-30T00:00:35.380Z,0
2017-12-30T00:01:35.122Z,0
2017-12-30T00:02:34.849Z,0
2017-12-30T00:03:35.117Z,0
2017-12-30T00:04:34.855Z,0
2017-12-30T00:05:35.387Z,0
2017-12-30T00:06:35.326Z,0
2017-12-30T00:07:35.298Z,0
2017-12-30T00:08:34.556Z,0
2017-12-30T00:09:35.071Z,0
2017-12-30T00:10:35.291Z,0
2017-12-30T00:11:35.036Z,0
2017-12-30T00:12:35.311Z,0
2017-12-30T00:13:35.580Z,0
2017-12-30T00:14:35.139Z,0
2017-12-30T00:15:34.488Z,0
2017-12-30T00:16:35.492Z,0
2017-12-30T00:17:34.702Z,0
2017-12-30T00:18:35.201Z,0
2017-12-30T00:19:35.203Z,0
2017-12-30T00:20:34.946Z,0
2017-12-30T00:21:34.684Z,0
2017-12-30T00:22:34.935Z,0
2017-12-30T00:23:34.953Z,0
2017-12-30T00:24:35.165Z,0
2017-12-30T00:25:34.674Z,0
2017-12-30T00:26:34.651Z,0
2017-12-30T00:27:35.430Z,0
2017-12-30T00:28:35.148Z,0
2017-12-30T00:29:35.190Z,0
2017-12-30T00:30:34.849Z,0
2017-12-30T00:31:34.873Z,0
2017-12-30T00:32:35.416Z,0
2017-12-30T00:33:35.087Z,0
2017-12-30T00:34:34.576Z,0
2017-12-30T00:35:34.591Z,0
2017-12-30T00:36:34.795Z,0
2017-12-30T00:37:34.542Z,0
2017-12-30T00:38:35.065Z,0
2017-12-30T00:39:35.040Z,0
2017-12-30T00:40:35.023Z,0
2017-12-30T00:41:35.224Z,0
2017-12-30T00:42:34.992Z,0
2017-12-30T00:43:34.713Z,0
2017-12-30T00:44:35.027Z,0
2017-12-30T00:45:34.714Z,0
2017-12-30T00:46:34.730Z,0
2017-12-30T00:47:34.942Z,0
2017-12-30T00:48:34.718Z,0
2017-12-30T00:49:34.927Z,0
2017-12-30T00:50:34.936Z,0
2017-12-30T00:51:34.690Z,0
2017-12-30T00:52:34.145Z,0
2017-12-30T00:53:34.897Z,0
2017-12-30T00:54:34.635Z,0
2017-12-30T00:55:34.624Z,0
2017-12-30T00:56:34.886Z,0
2017-12-30T00:57:34.871Z,0
2017-12-30T00:58:34.595Z,0
2017-12-30T00:59:34.883Z,0
2017-12-30T01:00:35.105Z,0
2017-12-30T01:01:34.315Z,0
2017-12-30T01:02:34.826Z,0
2017-12-30T01:03:34.550Z,0
2017-12-30T01:04:34.561Z,0
2017-12-30T01:05:35.057Z,0
2017-12-30T01:06:35.037Z,0
2017-12-30T01:07:34.492Z,0
2017-12-30T01:08:34.750Z,0
2017-12-30T01:09:34.490Z,0
2017-12-30T01:10:34.475Z,0
2017-12-30T01:11:34.728Z,0
2017-12-30T01:12:34.713Z,0
2017-12-30T01:13:34.453Z,0
2017-12-30T01:14:37.151Z,0
2017-12-30T01:15:34.691Z,0
2017-12-30T01:16:34.673Z,0
2017-12-30T01:17:34.922Z,0
2017-12-30T01:18:34.665Z,0
2017-12-30T01:19:34.398Z,0
2017-12-30T01:20:33.884Z,0
2017-12-30T01:21:34.629Z,0
2017-12-30T01:22:34.375Z,0
2017-12-30T01:23:34.359Z,0
2017-12-30T01:24:34.863Z,0
2017-12-30T01:25:34.352Z,0
2017-12-30T01:26:34.587Z,0
2017-12-30T01:27:34.329Z,0
2017-12-30T01:28:34.323Z,0
2017-12-30T01:29:34.055Z,0
2017-12-30T01:30:34.456Z,0
2017-12-30T01:31:34.544Z,0
2017-12-30T01:32:34.779Z,0
2017-12-30T01:33:34.535Z,0
2017-12-30T01:34:34.760Z,0
2017-12-30T01:35:34.268Z,0
2017-12-30T01:36:34.501Z,0
2017-12-30T01:37:34.250Z,0
2017-12-30T01:38:34.483Z,0
2017-12-30T01:39:34.227Z,0
2017-12-30T01:40:34.222Z,0
2017-12-30T01:41:34.461Z,0
2017-12-30T01:42:33.982Z,0
2017-12-30T01:43:34.191Z,0
2017-12-30T01:44:34.452Z,0
2017-12-30T01:45:34.437Z,0
2017-12-30T01:46:34.409Z,0
2017-12-30T01:47:33.898Z,0
2017-12-30T01:48:34.132Z,0
2017-12-30T01:49:34.134Z,0
2017-12-30T01:50:34.377Z,0
2017-12-30T01:51:33.866Z,0
2017-12-30T01:52:34.627Z,0
2017-12-30T01:53:33.846Z,0
2017-12-30T01:54:34.336Z,0
2017-12-30T01:55:34.323Z,0
2017-12-30T01:56:33.812Z,0
2017-12-30T01:57:34.562Z,0
2017-12-30T01:58:34.306Z,0
2017-12-30T01:59:34.551Z,0
2017-12-30T02:00:34.549Z,0
2017-12-30T02:01:34.025Z,0
2017-12-30T02:02:34.266Z,0
2017-12-30T02:03:34.258Z,0
2017-12-30T02:04:34.237Z,0
2017-12-30T02:05:34.230Z,0
2017-12-30T02:06:34.224Z,0
2017-12-30T02:07:34.223Z,0
2017-12-30T02:08:34.483Z,0
2017-12-30T02:09:33.947Z,0
2017-12-30T02:10:34.455Z,0
2017-12-30T02:11:33.938Z,0
2017-12-30T02:12:34.174Z,0
2017-12-30T02:13:33.914Z,0
2017-12-30T02:14:34.153Z,0
2017-12-30T02:15:37.404Z,0
2017-12-30T02:16:34.131Z,0
2017-12-30T02:17:34.121Z,0
2017-12-30T02:18:34.160Z,0
2017-12-30T02:19:34.404Z,0
2017-12-30T02:20:33.845Z,0
2017-12-30T02:21:34.092Z,0
2017-12-30T02:22:34.357Z,0
2017-12-30T02:23:34.328Z,0
2017-12-30T02:24:34.061Z,0
2017-12-30T02:25:34.303Z,0
2017-12-30T02:26:34.044Z,0
2017-12-30T02:27:33.836Z,0
2017-12-30T02:28:33.529Z,0
2017-12-30T02:29:34.025Z,0
2017-12-30T02:30:34.970Z,0
2017-12-30T02:31:33.495Z,0
2017-12-30T02:32:33.990Z,0
2017-12-30T02:33:33.738Z,0
2017-12-30T02:34:33.716Z,0
2017-12-30T02:35:34.226Z,0
2017-12-30T02:36:33.960Z,0
2017-12-30T02:37:33.967Z,0
2017-12-30T02:38:34.191Z,0
2017-12-30T02:39:33.937Z,0
2017-12-30T02:40:33.968Z,0
2017-12-30T02:41:33.920Z,0
2017-12-30T02:42:33.935Z,0
2017-12-30T02:43:33.923Z,0
2017-12-30T02:44:33.916Z,0
2017-12-30T02:45:33.678Z,0
2017-12-30T02:46:36.281Z,0
2017-12-30T02:47:33.863Z,0
2017-12-30T02:48:33.853Z,0
2017-12-30T02:49:33.612Z,0
2017-12-30T02:50:33.849Z,0
2017-12-30T02:51:33.826Z,0
2017-12-30T02:52:34.107Z,0
2017-12-30T02:53:33.834Z,0
2017-12-30T02:54:34.070Z,0
2017-12-30T02:55:34.044Z,0
2017-12-30T02:56:33.565Z,0
2017-12-30T02:57:33.789Z,0
2017-12-30T02:58:33.530Z,0
2017-12-30T02:59:33.773Z,0
2017-12-30T03:00:33.506Z,0
2017-12-30T03:01:34.950Z,0
2017-12-30T03:02:33.473Z,0
2017-12-30T03:03:33.724Z,0
2017-12-30T03:04:33.812Z,0
2017-12-30T03:05:33.470Z,0
2017-12-30T03:06:33.946Z,0
2017-12-30T03:07:33.944Z,0
2017-12-30T03:08:33.434Z,0
2017-12-30T03:09:33.682Z,0
2017-12-30T03:10:33.401Z,0
2017-12-30T03:11:33.405Z,0
2017-12-30T03:12:33.151Z,0
2017-12-30T03:13:33.888Z,0
2017-12-30T03:14:33.911Z,0
2017-12-30T03:15:33.630Z,0
2017-12-30T03:16:33.349Z,0
2017-12-30T03:17:33.621Z,0
2017-12-30T03:18:33.591Z,0
2017-12-30T03:19:33.849Z,0
2017-12-30T03:20:33.606Z,0
2017-12-30T03:21:33.053Z,0
2017-12-30T03:22:33.296Z,0
2017-12-30T03:23:33.578Z,0
2017-12-30T03:24:33.531Z,0
2017-12-30T03:25:33.281Z,0
2017-12-30T03:26:33.528Z,0
2017-12-30T03:27:33.509Z,0
2017-12-30T03:28:33.525Z,0
2017-12-30T03:29:33.507Z,0
2017-12-30T03:30:33.480Z,0
2017-12-30T03:31:34.551Z,0
2017-12-30T03:32:33.203Z,0
2017-12-30T03:33:33.208Z,0
2017-12-30T03:34:32.935Z,0
2017-12-30T03:35:33.720Z,0
2017-12-30T03:36:33.434Z,0
2017-12-30T03:37:33.178Z,0
2017-12-30T03:38:33.418Z,0
2017-12-30T03:39:33.150Z,0
2017-12-30T03:40:33.397Z,0
2017-12-30T03:41:33.127Z,0
2017-12-30T03:42:33.370Z,0
2017-12-30T03:43:33.356Z,0
2017-12-30T03:44:32.842Z,0
2017-12-30T03:45:33.353Z,0
2017-12-30T03:46:33.586Z,0
2017-12-30T03:47:33.575Z,0
2017-12-30T03:48:33.311Z,0
2017-12-30T03:49:33.320Z,0
2017-12-30T03:50:32.799Z,0
2017-12-30T03:51:33.037Z,0
2017-12-30T03:52:33.030Z,0
2017-12-30T03:53:33.525Z,0
2017-12-30T03:54:33.529Z,0
2017-12-30T03:55:33.501Z,0
2017-12-30T03:56:32.998Z,0
2017-12-30T03:57:33.230Z,0
2017-12-30T03:58:32.976Z,0
2017-12-30T03:59:33.220Z,0
2017-12-30T04:00:33.206Z,0
2017-12-30T04:01:33.448Z,0
2017-12-30T04:02:33.730Z,0
2017-12-30T04:03:33.453Z,0
2017-12-30T04:04:33.172Z,0
2017-12-30T04:05:32.655Z,0
2017-12-30T04:06:32.906Z,0
2017-12-30T04:07:33.404Z,0
2017-12-30T04:08:33.144Z,0
2017-12-30T04:09:33.386Z,0
2017-12-30T04:10:32.651Z,0
2017-12-30T04:11:33.106Z,0
2017-12-30T04:12:32.604Z,0
2017-12-30T04:13:32.891Z,0
2017-12-30T04:14:32.838Z,0
2017-12-30T04:15:32.823Z,0
2017-12-30T04:16:33.067Z,0
2017-12-30T04:17:32.808Z,0
2017-12-30T04:18:32.794Z,0
2017-12-30T04:19:33.288Z,0
2017-12-30T04:20:32.785Z,0
2017-12-30T04:21:32.768Z,0
2017-12-30T04:22:33.300Z,0
2017-12-30T04:23:32.754Z,0
2017-12-30T04:24:32.754Z,0
2017-12-30T04:25:32.485Z,0
2017-12-30T04:26:32.732Z,0
2017-12-30T04:27:32.715Z,0
2017-12-30T04:28:33.216Z,0
2017-12-30T04:29:32.704Z,0
2017-12-30T04:30:32.696Z,0
2017-12-30T04:31:32.690Z,0
2017-12-30T04:32:34.007Z,0
2017-12-30T04:33:33.173Z,0
2017-12-30T04:34:32.664Z,0
2017-12-30T04:35:32.895Z,0
2017-12-30T04:36:32.894Z,0
2017-12-30T04:37:33.136Z,0
2017-12-30T04:38:32.621Z,0
2017-12-30T04:39:33.119Z,0
2017-12-30T04:40:32.597Z,0
2017-12-30T04:41:32.851Z,0
2017-12-30T04:42:32.580Z,0
2017-12-30T04:43:32.825Z,0
2017-12-30T04:44:33.062Z,0
2017-12-30T04:45:32.815Z,0
2017-12-30T04:46:32.551Z,0
2017-12-30T04:47:32.287Z,0
2017-12-30T04:48:32.525Z,0
2017-12-30T04:49:32.768Z,0
2017-12-30T04:50:32.770Z,0
2017-12-30T04:51:32.247Z,0
2017-12-30T04:52:32.496Z,0
2017-12-30T04:53:32.498Z,0
2017-12-30T04:54:32.983Z,0
2017-12-30T04:55:32.964Z,0
2017-12-30T04:56:32.716Z,0
2017-12-30T04:57:32.450Z,0
2017-12-30T04:58:32.180Z,0
2017-12-30T04:59:32.686Z,0
2017-12-30T05:00:32.938Z,0
2017-12-30T05:01:32.659Z,0
2017-12-30T05:02:33.172Z,0
2017-12-30T05:03:32.650Z,0
2017-12-30T05:04:32.888Z,0
2017-12-30T05:05:32.377Z,0
2017-12-30T05:06:32.366Z,0
2017-12-30T05:07:33.156Z,0
2017-12-30T05:08:32.360Z,0
2017-12-30T05:09:32.088Z,0
2017-12-30T05:10:32.583Z,0
2017-12-30T05:11:32.569Z,0
2017-12-30T05:12:32.819Z,0
2017-12-30T05:13:32.808Z,0
2017-12-30T05:14:32.552Z,0
2017-12-30T05:15:32.039Z,0
2017-12-30T05:16:32.289Z,0
2017-12-30T05:17:32.266Z,0
2017-12-30T05:18:32.507Z,0
2017-12-30T05:19:32.496Z,0
2017-12-30T05:20:32.493Z,0
2017-12-30T05:21:32.738Z,0
2017-12-30T05:22:32.244Z,0
2017-12-30T05:23:32.478Z,0
2017-12-30T05:24:31.710Z,0
2017-12-30T05:25:32.440Z,0
2017-12-30T05:26:32.698Z,0
2017-12-30T05:27:32.432Z,0
2017-12-30T05:28:32.423Z,0
2017-12-30T05:29:32.413Z,0
2017-12-30T05:30:32.425Z,0
2017-12-30T05:31:32.161Z,0
2017-12-30T05:32:32.644Z,0
2017-12-30T05:33:32.376Z,0
2017-12-30T05:34:32.394Z,0
2017-12-30T05:35:32.137Z,0
2017-12-30T05:36:32.618Z,0
2017-12-30T05:37:32.606Z,0
2017-12-30T05:38:32.585Z,0
2017-12-30T05:39:32.331Z,0
2017-12-30T05:40:32.327Z,0
2017-12-30T05:41:32.054Z,0
2017-12-30T05:42:32.071Z,0
2017-12-30T05:43:32.286Z,0
2017-12-30T05:44:32.537Z,0
2017-12-30T05:45:32.518Z,0
2017-12-30T05:46:32.026Z,0
2017-12-30T05:47:32.053Z,0
2017-12-30T05:48:32.261Z,0
2017-12-30T05:49:31.979Z,0
2017-12-30T05:50:32.226Z,0
2017-12-30T05:51:32.307Z,0
2017-12-30T05:52:32.481Z,0
2017-12-30T05:53:32.264Z,0
2017-12-30T05:54:31.962Z,0
2017-12-30T05:55:32.446Z,0
2017-12-30T05:56:31.945Z,0
2017-12-30T05:57:32.426Z,0
2017-12-30T05:58:32.422Z,0
2017-12-30T05:59:32.159Z,0
2017-12-30T06:00:31.649Z,0
2017-12-30T06:01:32.399Z,0
2017-12-30T06:02:31.869Z,0
2017-12-30T06:03:36.423Z,0
2017-12-30T06:04:32.360Z,0
2017-12-30T06:05:31.847Z,0
2017-12-30T06:06:31.377Z,0
2017-12-30T06:07:32.085Z,0
2017-12-30T06:08:32.080Z,0
2017-12-30T06:09:32.063Z,0
2017-12-30T06:10:31.801Z,0
2017-12-30T06:11:31.802Z,0
2017-12-30T06:12:32.290Z,0
2017-12-30T06:13:32.278Z,0
2017-12-30T06:14:31.519Z,0
2017-12-30T06:15:32.017Z,0
2017-12-30T06:16:32.277Z,0
2017-12-30T06:17:31.801Z,0
2017-12-30T06:18:32.070Z,0
2017-12-30T06:19:32.230Z,0
2017-12-30T06:20:31.481Z,0
2017-12-30T06:21:31.470Z,0
2017-12-30T06:22:31.954Z,0
2017-12-30T06:23:31.711Z,0
2017-12-30T06:24:32.216Z,0
2017-12-30T06:25:32.188Z,0
2017-12-30T06:26:31.420Z,0
2017-12-30T06:27:31.915Z,0
2017-12-30T06:28:31.913Z,0
2017-12-30T06:29:31.895Z,0
2017-12-30T06:30:32.138Z,0
2017-12-30T06:31:31.887Z,0
2017-12-30T06:32:31.869Z,0
2017-12-30T06:33:31.614Z,0
2017-12-30T06:34:31.614Z,0
2017-12-30T06:35:31.843Z,0
2017-12-30T06:36:31.356Z,0
2017-12-30T06:37:31.612Z,0
2017-12-30T06:38:32.073Z,0
2017-12-30T06:39:31.811Z,0
2017-12-30T06:40:32.062Z,0
2017-12-30T06:41:32.063Z,0
2017-12-30T06:42:31.555Z,0
2017-12-30T06:43:31.550Z,0
2017-12-30T06:44:31.818Z,0
2017-12-30T06:45:31.531Z,0
2017-12-30T06:46:32.008Z,0
2017-12-30T06:47:31.995Z,0
2017-12-30T06:48:32.025Z,0
2017-12-30T06:49:31.790Z,0
2017-12-30T06:50:31.484Z,0
2017-12-30T06:51:31.736Z,0
2017-12-30T06:52:31.217Z,0
2017-12-30T06:53:31.753Z,0
2017-12-30T06:54:31.187Z,0
2017-12-30T06:55:31.195Z,0
2017-12-30T06:56:31.230Z,0
2017-12-30T06:57:31.917Z,0
2017-12-30T06:58:31.905Z,0
2017-12-30T06:59:31.146Z,0
2017-12-30T07:00:31.403Z,0
2017-12-30T07:01:31.891Z,0
2017-12-30T07:02:31.403Z,0
2017-12-30T07:03:31.881Z,0
2017-12-30T07:04:32.407Z,0
2017-12-30T07:05:31.631Z,0
2017-12-30T07:06:31.631Z,0
2017-12-30T07:07:31.835Z,0
2017-12-30T07:08:31.345Z,0
2017-12-30T07:09:31.590Z,0
2017-12-30T07:10:31.808Z,0
2017-12-30T07:11:31.316Z,0
2017-12-30T07:12:31.573Z,0
2017-12-30T07:13:31.810Z,0
2017-12-30T07:14:31.110Z,0
2017-12-30T07:15:31.547Z,0
2017-12-30T07:16:31.552Z,0
2017-12-30T07:17:31.573Z,0
2017-12-30T07:18:31.615Z,0
2017-12-30T07:19:30.896Z,0
2017-12-30T07:20:31.266Z,0
2017-12-30T07:21:31.522Z,0
2017-12-30T07:22:31.212Z,0
2017-12-30T07:23:31.465Z,0
2017-12-30T07:24:31.206Z,0
2017-12-30T07:25:31.470Z,0
2017-12-30T07:26:31.711Z,0
2017-12-30T07:27:31.459Z,0
2017-12-30T07:28:31.453Z,0
2017-12-30T07:29:31.408Z,0
2017-12-30T07:30:31.670Z,0
2017-12-30T07:31:30.911Z,0
2017-12-30T07:32:31.146Z,0
2017-12-30T07:33:31.139Z,0
2017-12-30T07:34:32.068Z,0
2017-12-30T07:35:31.145Z,0
2017-12-30T07:36:31.371Z,0
2017-12-30T07:37:31.101Z,0
2017-12-30T07:38:31.650Z,0
2017-12-30T07:39:31.603Z,0
2017-12-30T07:40:31.086Z,0
2017-12-30T07:41:31.610Z,0
2017-12-30T07:42:31.566Z,0
2017-12-30T07:43:31.300Z,0
2017-12-30T07:44:31.566Z,0
2017-12-30T07:45:31.289Z,0
2017-12-30T07:46:31.311Z,0
2017-12-30T07:47:31.569Z,0
2017-12-30T07:48:31.095Z,0
2017-12-30T07:49:31.006Z,5
2017-12-30T07:50:30.987Z,5
2017-12-30T07:51:30.989Z,5
2017-12-30T07:52:31.004Z,5
2017-12-30T07:53:30.976Z,5
2017-12-30T07:54:31.221Z,5
2017-12-30T07:55:31.208Z,5
2017-12-30T07:56:31.208Z,5
2017-12-30T07:57:30.940Z,5
2017-12-30T07:58:31.185Z,10
2017-12-30T07:59:31.167Z,10
2017-12-30T08:00:31.178Z,10
2017-12-30T08:01:31.424Z,10
2017-12-30T08:02:30.888Z,10
2017-12-30T08:03:31.410Z,10
2017-12-30T08:04:31.927Z,10
2017-12-30T08:05:30.865Z,10
2017-12-30T08:06:31.119Z,10
2017-12-30T08:07:31.348Z,10
2017-12-30T08:08:31.092Z,10
2017-12-30T08:09:30.832Z,10
2017-12-30T08:10:30.832Z,10
2017-12-30T08:11:31.350Z,10
2017-12-30T08:12:30.820Z,10
2017-12-30T08:13:31.300Z,10
2017-12-30T08:14:31.040Z,10
2017-12-30T08:15:30.840Z,10
2017-12-30T08:16:31.038Z,10
2017-12-30T08:17:31.020Z,15
2017-12-30T08:18:30.756Z,15
2017-12-30T08:19:30.740Z,15
2017-12-30T08:20:31.115Z,15
2017-12-30T08:21:31.046Z,15
2017-12-30T08:22:30.972Z,15
2017-12-30T08:23:31.228Z,15
2017-12-30T08:24:30.951Z,15
2017-12-30T08:25:30.743Z,15
2017-12-30T08:26:30.688Z,15
2017-12-30T08:27:30.944Z,15
2017-12-30T08:28:30.669Z,15
2017-12-30T08:29:30.909Z,15
2017-12-30T08:30:31.152Z,15
2017-12-30T08:31:30.392Z,15
2017-12-30T08:32:31.136Z,20
2017-12-30T08:33:31.135Z,20
2017-12-30T08:34:31.817Z,20
2017-12-30T08:35:31.103Z,20
2017-12-30T08:37:02.454Z,20
2017-12-30T08:37:31.094Z,20
2017-12-30T08:38:30.846Z,20
2017-12-30T08:39:31.626Z,20
2017-12-30T08:40:30.564Z,20
2017-12-30T08:41:30.809Z,20
2017-12-30T08:42:30.793Z,20
2017-12-30T08:43:30.295Z,20
2017-12-30T08:44:30.530Z,20
2017-12-30T08:45:30.533Z,20
2017-12-30T08:46:30.513Z,25
2017-12-30T08:47:30.750Z,25
2017-12-30T08:48:30.758Z,25
2017-12-30T08:49:30.744Z,25
2017-12-30T08:50:30.876Z,25
2017-12-30T08:51:30.224Z,25
2017-12-30T08:52:30.214Z,25
2017-12-30T08:53:30.468Z,25
2017-12-30T08:54:30.711Z,25
2017-12-30T08:55:30.442Z,25
2017-12-30T08:56:30.930Z,25
2017-12-30T08:57:30.716Z,25
2017-12-30T08:58:30.671Z,30
2017-12-30T08:59:30.907Z,30
2017-12-30T09:00:30.657Z,30
2017-12-30T09:01:30.888Z,30
2017-12-30T09:02:30.642Z,30
2017-12-30T09:03:30.870Z,30
2017-12-30T09:04:30.610Z,30
2017-12-30T09:05:30.910Z,30
2017-12-30T09:06:30.866Z,30
2017-12-30T09:07:30.863Z,30
2017-12-30T09:08:30.576Z,30
2017-12-30T09:09:30.076Z,30
2017-12-30T09:10:30.818Z,30
2017-12-30T09:11:30.304Z,35
2017-12-30T09:12:30.295Z,35
2017-12-30T09:13:30.795Z,35
2017-12-30T09:14:30.276Z,40
2017-12-30T09:15:30.790Z,40
2017-12-30T09:16:30.523Z,45
2017-12-30T09:17:30.520Z,50
2017-12-30T09:18:30.504Z,50
2017-12-30T09:19:29.987Z,50
2017-12-30T09:20:30.730Z,50
2017-12-30T09:21:30.512Z,45
2017-12-30T09:22:30.462Z,40
2017-12-30T09:23:29.966Z,40
2017-12-30T09:24:30.697Z,35
2017-12-30T09:25:30.435Z,35
2017-12-30T09:26:30.432Z,30
2017-12-30T09:27:30.478Z,30
2017-12-30T09:28:30.177Z,35
2017-12-30T09:29:30.174Z,35
2017-12-30T09:30:31.212Z,40
2017-12-30T09:31:30.393Z,40
2017-12-30T09:32:30.391Z,45
2017-12-30T09:33:30.652Z,45
2017-12-30T09:34:30.119Z,40
2017-12-30T09:35:33.060Z,45
2017-12-30T09:36:30.369Z,45
2017-12-30T09:37:30.600Z,45
2017-12-30T09:38:30.598Z,45
2017-12-30T09:39:30.349Z,45
2017-12-30T09:40:30.086Z,50
2017-12-30T09:41:30.332Z,50
2017-12-30T09:42:30.571Z,50
2017-12-30T09:43:30.307Z,50
2017-12-30T09:44:30.046Z,50
2017-12-30T09:45:30.040Z,50
2017-12-30T09:46:30.030Z,50
2017-12-30T09:47:30.290Z,50
2017-12-30T09:48:30.029Z,50
2017-12-30T09:49:30.009Z,50
2017-12-30T09:50:30.500Z,50
2017-12-30T09:51:30.491Z,50
2017-12-30T09:52:30.257Z,50
2017-12-30T09:53:29.984Z,50
2017-12-30T09:54:30.472Z,55
2017-12-30T09:55:29.975Z,65
2017-12-30T09:56:30.207Z,70
2017-12-30T09:57:29.951Z,70
2017-12-30T09:58:30.197Z,70
2017-12-30T09:59:29.936Z,70
2017-12-30T10:00:30.180Z,70
2017-12-30T10:01:29.661Z,65
2017-12-30T10:02:30.160Z,60
2017-12-30T10:03:30.189Z,55
2017-12-30T10:04:29.903Z,50
2017-12-30T10:05:30.964Z,50
2017-12-30T10:06:30.137Z,45
2017-12-30T10:07:30.396Z,45
2017-12-30T10:08:30.117Z,45
2017-12-30T10:09:30.117Z,45
2017-12-30T10:10:29.892Z,40
2017-12-30T10:11:30.088Z,40
2017-12-30T10:12:30.086Z,40
2017-12-30T10:13:30.082Z,40
2017-12-30T10:14:29.841Z,35
2017-12-30T10:15:30.316Z,35
2017-12-30T10:16:30.353Z,40
2017-12-30T10:17:29.544Z,50
2017-12-30T10:18:30.034Z,60
2017-12-30T10:19:29.790Z,75
2017-12-30T10:20:30.482Z,75
2017-12-30T10:21:29.775Z,70
2017-12-30T10:22:30.014Z,80
2017-12-30T10:52:51.021Z,140
2017-12-30T10:53:51.020Z,150
2017-12-30T10:54:50.562Z,160
2017-12-30T10:55:50.292Z,145
2017-12-30T10:56:50.201Z,145
2017-12-30T10:57:50.448Z,140
2017-12-30T10:58:50.183Z,140
2017-12-30T10:59:50.671Z,135
2017-12-30T11:00:50.437Z,130
2017-12-30T11:01:50.422Z,125
2017-12-30T11:02:50.905Z,105
2017-12-30T11:03:50.900Z,105
2017-12-30T11:04:50.640Z,110
2017-12-30T11:05:50.915Z,105
2017-12-30T11:06:50.365Z,105
2017-12-30T11:07:50.385Z,110
2017-12-30T11:08:50.359Z,105
2017-12-30T11:09:50.613Z,100
2017-12-30T11:10:50.108Z,100
2017-12-30T11:11:50.847Z,100
2017-12-30T11:12:49.839Z,90
2017-12-30T11:13:50.569Z,95
2017-12-30T11:14:50.334Z,105
2017-12-30T11:15:50.060Z,100
2017-12-30T11:16:50.552Z,100
2017-12-30T11:17:50.300Z,95
2017-12-30T11:18:50.289Z,90
2017-12-30T11:19:50.295Z,85
2017-12-30T11:20:50.537Z,80
2017-12-30T11:21:50.370Z,85
2017-12-30T11:22:50.563Z,90
2017-12-30T11:23:50.519Z,100
2017-12-30T11:24:50.267Z,110
2017-12-30T11:25:50.008Z,120
2017-12-30T11:26:50.306Z,110
2017-12-30T11:27:50.563Z,115
2017-12-30T11:28:50.241Z,115
2017-12-30T11:29:50.513Z,110
2017-12-30T11:30:50.222Z,100
2017-12-30T11:31:50.501Z,95
2017-12-30T11:32:50.713Z,90
2017-12-30T11:33:50.204Z,90
2017-12-30T11:34:50.200Z,90
2017-12-30T11:35:50.192Z,90
2017-12-30T11:36:50.189Z,95
2017-12-30T11:37:50.445Z,100
2017-12-30T11:38:50.694Z,95
2017-12-30T11:39:50.432Z,90
2017-12-30T11:40:50.173Z,80
2017-12-30T11:41:50.469Z,65
2017-12-30T11:42:50.417Z,60
2017-12-30T11:43:50.157Z,65
2017-12-30T11:44:50.666Z,70
2017-12-30T11:45:50.403Z,75
2017-12-30T11:46:50.407Z,70
2017-12-30T11:47:50.409Z,80
2017-12-30T11:48:50.140Z,90
2017-12-30T11:49:50.137Z,90
2017-12-30T11:50:50.142Z,90
2017-12-30T11:51:50.106Z,90
2017-12-30T11:52:50.103Z,95
2017-12-30T11:53:50.611Z,100
2017-12-30T11:54:50.625Z,95
2017-12-30T11:55:49.921Z,90
2017-12-30T11:56:50.360Z,80
2017-12-30T11:57:50.165Z,75
2017-12-30T11:58:49.825Z,75
2017-12-30T11:59:50.332Z,70
2017-12-30T12:00:50.589Z,70
2017-12-30T12:01:50.570Z,80
2017-12-30T12:02:50.312Z,90
2017-12-30T12:03:49.797Z,95
2017-12-30T12:04:50.068Z,95
2017-12-30T12:05:50.054Z,115
2017-12-30T12:06:49.560Z,120
2017-12-30T12:07:50.308Z,120
2017-12-30T12:08:50.034Z,120
2017-12-30T12:09:50.279Z,125
2017-12-30T12:10:49.771Z,125
2017-12-30T12:11:49.755Z,125
2017-12-30T12:12:50.010Z,130
2017-12-30T12:13:50.528Z,130
2017-12-30T12:14:50.247Z,125
2017-12-30T12:15:49.740Z,115
2017-12-30T12:16:49.740Z,115
2017-12-30T12:17:50.242Z,115
2017-12-30T12:18:50.300Z,105
2017-12-30T12:19:50.209Z,100
2017-12-30T12:20:49.977Z,90
2017-12-30T12:21:50.206Z,85
2017-12-30T12:22:49.894Z,80
2017-12-30T12:23:50.197Z,75
2017-12-30T12:24:50.198Z,80
2017-12-30T12:25:49.978Z,75
2017-12-30T12:26:49.945Z,75
2017-12-30T12:27:49.944Z,75
2017-12-30T12:28:50.419Z,75
2017-12-30T12:29:49.676Z,75
2017-12-30T12:30:50.173Z,70
2017-12-30T12:31:50.156Z,70
2017-12-30T12:32:49.926Z,75
2017-12-30T12:33:50.433Z,70
2017-12-30T12:34:49.639Z,65
2017-12-30T12:35:50.394Z,65
2017-12-30T12:36:50.137Z,60
2017-12-30T12:37:50.123Z,60
2017-12-30T12:38:50.386Z,60
2017-12-30T12:39:50.114Z,55
2017-12-30T12:40:50.378Z,50
2017-12-30T12:41:49.861Z,45
2017-12-30T12:42:50.107Z,50
2017-12-30T12:43:50.099Z,45
2017-12-30T12:44:49.847Z,45
2017-12-30T12:45:49.953Z,45
2017-12-30T12:46:50.346Z,55
2017-12-30T12:47:50.083Z,60
2017-12-30T12:48:50.083Z,65
2017-12-30T12:49:49.830Z,70
2017-12-30T12:50:49.574Z,65
2017-12-30T12:51:49.592Z,55
2017-12-30T12:52:51.656Z,55
2017-12-30T12:53:50.059Z,50
2017-12-30T12:54:49.804Z,50
2017-12-30T12:55:49.539Z,45
2017-12-30T12:56:50.048Z,45
2017-12-30T12:57:50.053Z,40
2017-12-30T12:58:50.054Z,45
2017-12-30T12:59:50.117Z,45
2017-12-30T13:00:50.132Z,45
2017-12-30T13:01:50.296Z,45
2017-12-30T13:02:49.785Z,50
2017-12-30T13:03:50.013Z,65
2017-12-30T13:04:50.013Z,75
2017-12-30T13:05:50.027Z,90
2017-12-30T13:06:50.019Z,100
2017-12-30T13:07:49.499Z,100
2017-12-30T13:08:50.238Z,100
2017-12-30T13:09:49.732Z,100
2017-12-30T13:10:50.029Z,95
2017-12-30T13:11:50.249Z,95
2017-12-30T13:12:49.495Z,90
2017-12-30T13:13:50.248Z,85
2017-12-30T13:14:50.258Z,75
2017-12-30T13:15:49.974Z,65
2017-12-30T13:16:49.722Z,60
2017-12-30T13:17:49.701Z,60
2017-12-30T13:18:49.719Z,65
2017-12-30T13:19:50.192Z,65
2017-12-30T13:20:49.948Z,65
2017-12-30T13:21:50.192Z,65
2017-12-30T13:22:50.186Z,65
2017-12-30T13:23:49.701Z,65
2017-12-30T13:24:49.969Z,65
2017-12-30T13:25:49.684Z,60
2017-12-30T13:26:50.356Z,60
2017-12-30T13:27:50.173Z,60
2017-12-30T13:28:49.680Z,50
2017-12-30T13:29:49.404Z,55
2017-12-30T13:30:50.178Z,55
2017-12-30T13:31:49.916Z,55
2017-12-30T13:32:49.660Z,60
2017-12-30T13:33:49.415Z,60
2017-12-30T13:34:49.634Z,60
2017-12-30T13:35:50.142Z,65
2017-12-30T13:36:49.880Z,60
2017-12-30T13:37:49.379Z,60
2017-12-30T13:38:49.881Z,60
2017-12-30T13:39:50.143Z,55
2017-12-30T13:40:49.619Z,45
2017-12-30T13:41:50.143Z,40
2017-12-30T13:42:49.619Z,35
2017-12-30T13:43:49.643Z,40
2017-12-30T13:44:49.874Z,35
2017-12-30T13:45:50.157Z,30
2017-12-30T13:46:50.091Z,25
2017-12-30T13:47:49.633Z,20
2017-12-30T13:48:49.586Z,20
2017-12-30T13:49:49.567Z,20
2017-12-30T13:50:49.574Z,20
2017-12-30T13:51:50.057Z,20
2017-12-30T13:52:50.622Z,20
2017-12-30T13:53:50.082Z,20
2017-12-30T13:54:49.802Z,20
2017-12-30T13:55:49.542Z,20
2017-12-30T13:56:49.570Z,20
2017-12-30T13:57:49.549Z,20
2017-12-30T13:58:49.854Z,15
2017-12-30T13:59:49.263Z,20
2017-12-30T14:00:49.759Z,15
2017-12-30T14:01:49.524Z,15
2017-12-30T14:02:49.805Z,15
2017-12-30T14:03:49.496Z,20
2017-12-30T14:04:50.040Z,20
2017-12-30T14:05:49.738Z,20
2017-12-30T14:06:49.740Z,20
2017-12-30T14:07:49.992Z,20
2017-12-30T14:08:50.039Z,20
2017-12-30T14:09:49.977Z,20
2017-12-30T14:10:49.480Z,25
2017-12-30T14:11:49.742Z,20
2017-12-30T14:12:49.715Z,20
2017-12-30T14:13:48.961Z,15
2017-12-30T14:14:49.979Z,15
2017-12-30T14:15:49.454Z,15
2017-12-30T14:16:49.706Z,20
2017-12-30T14:17:49.942Z,25
2017-12-30T14:18:49.751Z,20
2017-12-30T14:19:49.209Z,20
2017-12-30T14:20:49.686Z,20
2017-12-30T14:21:49.738Z,20
2017-12-30T14:22:49.949Z,15
2017-12-30T14:23:49.711Z,15
2017-12-30T14:24:49.398Z,15
2017-12-30T14:25:49.455Z,10
2017-12-30T14:26:49.648Z,10
2017-12-30T14:27:49.387Z,15
2017-12-30T14:28:49.636Z,15
2017-12-30T14:29:49.128Z,15
2017-12-30T14:30:49.898Z,15
2017-12-30T14:31:49.386Z,15
2017-12-30T14:32:48.878Z,15
2017-12-30T14:33:49.383Z,20
2017-12-30T14:34:49.888Z,20
2017-12-30T14:35:49.617Z,20
2017-12-30T14:36:49.866Z,20
2017-12-30T14:37:49.089Z,20
2017-12-30T14:38:49.635Z,20
2017-12-30T14:39:49.093Z,20
2017-12-30T14:40:49.577Z,15
2017-12-30T14:41:49.831Z,15
2017-12-30T14:42:49.581Z,15
2017-12-30T14:43:49.815Z,15
2017-12-30T14:44:49.823Z,10
2017-12-30T14:45:49.823Z,10
2017-12-30T14:46:49.563Z,10
2017-12-30T14:47:49.840Z,5
2017-12-30T14:48:49.564Z,5
2017-12-30T14:49:49.811Z,5
2017-12-30T14:50:49.538Z,5
2017-12-30T14:51:49.582Z,5
2017-12-30T14:52:49.543Z,5
2017-12-30T14:53:49.284Z,5
2017-12-30T14:54:49.766Z,10
2017-12-30T14:55:49.817Z,10
2017-12-30T14:56:49.515Z,10
2017-12-30T14:57:49.778Z,10
2017-12-30T14:58:49.520Z,20
2017-12-30T14:59:49.258Z,20
2017-12-30T15:00:49.243Z,25